sensor_id;sensor_type;location;lat;lon;timestamp;pressure;altitude;pressure_sealevel;temperature
74043;BMP280;62384;53.600;10.040;2023-04-03T00:02:23;68692.06;;;2.48
74043;BMP280;62384;53.600;10.040;2023-04-03T00:04:49;68792.09;;;2.51
74043;BMP280;62384;53.600;10.040;2023-04-03T00:07:14;68791.13;;;2.45
74043;BMP280;62384;53.600;10.040;2023-04-03T00:09:40;68671.56;;;2.51
74043;BMP280;62384;53.600;10.040;2023-04-03T00:12:05;68662.16;;;2.50
74043;BMP280;62384;53.600;10.040;2023-04-03T00:14:30;68641.31;;;2.42
74043;BMP280;62384;53.600;10.040;2023-04-03T00:16:56;68635.38;;;2.52
74043;BMP280;62384;53.600;10.040;2023-04-03T00:19:21;68664.25;;;2.49
74043;BMP280;62384;53.600;10.040;2023-04-03T00:21:47;68329.91;;;2.50
74043;BMP280;62384;53.600;10.040;2023-04-03T00:24:12;68518.50;;;2.53
74043;BMP280;62384;53.600;10.040;2023-04-03T00:26:37;68627.03;;;2.49
74043;BMP280;62384;53.600;10.040;2023-04-03T00:29:02;68631.34;;;2.43
74043;BMP280;62384;53.600;10.040;2023-04-03T00:31:28;68528.72;;;2.40
74043;BMP280;62384;53.600;10.040;2023-04-03T00:33:53;68322.44;;;2.33
74043;BMP280;62384;53.600;10.040;2023-04-03T00:36:18;68293.19;;;2.30
74043;BMP280;62384;53.600;10.040;2023-04-03T00:38:44;68311.09;;;2.27
74043;BMP280;62384;53.600;10.040;2023-04-03T00:41:09;68083.81;;;2.25
74043;BMP280;62384;53.600;10.040;2023-04-03T00:43:35;68191.19;;;2.25
74043;BMP280;62384;53.600;10.040;2023-04-03T00:46:00;68212.50;;;2.30
74043;BMP280;62384;53.600;10.040;2023-04-03T00:48:29;68506.84;;;2.34
74043;BMP280;62384;53.600;10.040;2023-04-03T00:50:56;68084.84;;;2.26
74043;BMP280;62384;53.600;10.040;2023-04-03T00:53:26;68125.53;;;2.11
74043;BMP280;62384;53.600;10.040;2023-04-03T00:55:54;68177.94;;;2.30
74043;BMP280;62384;53.600;10.040;2023-04-03T00:58:22;67987.66;;;2.18
74043;BMP280;62384;53.600;10.040;2023-04-03T01:00:54;68138.81;;;2.25
74043;BMP280;62384;53.600;10.040;2023-04-03T01:03:22;68127.00;;;2.15
74043;BMP280;62384;53.600;10.040;2023-04-03T01:05:48;68183.78;;;2.28
74043;BMP280;62384;53.600;10.040;2023-04-03T01:08:14;68003.28;;;2.20
74043;BMP280;62384;53.600;10.040;2023-04-03T01:10:39;68069.84;;;2.19
74043;BMP280;62384;53.600;10.040;2023-04-03T01:13:28;67984.44;;;2.20
74043;BMP280;62384;53.600;10.040;2023-04-03T01:15:55;67995.63;;;2.12
74043;BMP280;62384;53.600;10.040;2023-04-03T01:18:25;68066.78;;;2.15
74043;BMP280;62384;53.600;10.040;2023-04-03T01:21:10;68096.59;;;2.17
74043;BMP280;62384;53.600;10.040;2023-04-03T01:26:20;67887.88;;;2.09
74043;BMP280;62384;53.600;10.040;2023-04-03T01:32:30;67753.50;;;2.03
74043;BMP280;62384;53.600;10.040;2023-04-03T01:34:55;67540.41;;;2.05
74043;BMP280;62384;53.600;10.040;2023-04-03T01:37:20;67529.94;;;2.05
74043;BMP280;62384;53.600;10.040;2023-04-03T01:39:45;67637.59;;;2.10
74043;BMP280;62384;53.600;10.040;2023-04-03T01:42:11;67487.38;;;2.09
74043;BMP280;62384;53.600;10.040;2023-04-03T01:44:37;67435.53;;;2.10
74043;BMP280;62384;53.600;10.040;2023-04-03T01:47:06;67203.88;;;2.03
74043;BMP280;62384;53.600;10.040;2023-04-03T01:49:32;67335.25;;;2.04
74043;BMP280;62384;53.600;10.040;2023-04-03T01:51:57;67380.44;;;1.99
74043;BMP280;62384;53.600;10.040;2023-04-03T01:54:22;67467.38;;;1.97
74043;BMP280;62384;53.600;10.040;2023-04-03T01:56:47;67253.72;;;2.01
74043;BMP280;62384;53.600;10.040;2023-04-03T01:59:13;67138.47;;;2.03
74043;BMP280;62384;53.600;10.040;2023-04-03T02:01:38;67099.22;;;2.03
74043;BMP280;62384;53.600;10.040;2023-04-03T02:04:03;66991.41;;;2.03
74043;BMP280;62384;53.600;10.040;2023-04-03T02:06:29;66785.72;;;2.04
74043;BMP280;62384;53.600;10.040;2023-04-03T02:08:54;67367.84;;;2.00
74043;BMP280;62384;53.600;10.040;2023-04-03T02:11:19;67308.84;;;1.96
74043;BMP280;62384;53.600;10.040;2023-04-03T02:13:45;67290.47;;;1.98
74043;BMP280;62384;53.600;10.040;2023-04-03T02:16:11;67220.59;;;1.91
74043;BMP280;62384;53.600;10.040;2023-04-03T02:18:37;67275.72;;;1.86
74043;BMP280;62384;53.600;10.040;2023-04-03T02:21:03;67219.09;;;1.90
74043;BMP280;62384;53.600;10.040;2023-04-03T02:23:28;67160.94;;;1.92
74043;BMP280;62384;53.600;10.040;2023-04-03T02:26:09;67283.31;;;1.94
74043;BMP280;62384;53.600;10.040;2023-04-03T02:28:35;67172.91;;;1.80
74043;BMP280;62384;53.600;10.040;2023-04-03T02:31:01;66952.19;;;1.79
74043;BMP280;62384;53.600;10.040;2023-04-03T02:33:26;66917.91;;;1.74
74043;BMP280;62384;53.600;10.040;2023-04-03T02:35:55;66772.22;;;1.80
74043;BMP280;62384;53.600;10.040;2023-04-03T02:38:21;66697.72;;;1.73
74043;BMP280;62384;53.600;10.040;2023-04-03T02:40:50;66649.03;;;1.74
74043;BMP280;62384;53.600;10.040;2023-04-03T02:43:16;66760.22;;;1.68
74043;BMP280;62384;53.600;10.040;2023-04-03T02:45:41;66373.97;;;1.63
74043;BMP280;62384;53.600;10.040;2023-04-03T02:48:07;66522.03;;;1.62
74043;BMP280;62384;53.600;10.040;2023-04-03T02:50:32;66482.31;;;1.62
74043;BMP280;62384;53.600;10.040;2023-04-03T02:52:57;66483.03;;;1.68
74043;BMP280;62384;53.600;10.040;2023-04-03T02:55:23;66593.84;;;1.47
74043;BMP280;62384;53.600;10.040;2023-04-03T02:57:48;66477.69;;;1.59
74043;BMP280;62384;53.600;10.040;2023-04-03T03:00:13;66665.09;;;1.67
74043;BMP280;62384;53.600;10.040;2023-04-03T03:02:39;66599.22;;;1.66
74043;BMP280;62384;53.600;10.040;2023-04-03T03:05:05;66712.66;;;1.67
74043;BMP280;62384;53.600;10.040;2023-04-03T03:07:31;66544.06;;;1.60
74043;BMP280;62384;53.600;10.040;2023-04-03T03:09:56;66422.31;;;1.59
74043;BMP280;62384;53.600;10.040;2023-04-03T03:12:21;66588.25;;;1.55
74043;BMP280;62384;53.600;10.040;2023-04-03T03:14:48;66486.41;;;1.52
74043;BMP280;62384;53.600;10.040;2023-04-03T03:17:13;66377.13;;;1.53
74043;BMP280;62384;53.600;10.040;2023-04-03T03:19:39;66302.72;;;1.46
74043;BMP280;62384;53.600;10.040;2023-04-03T03:22:04;66547.81;;;1.59
74043;BMP280;62384;53.600;10.040;2023-04-03T03:24:29;66508.19;;;1.56
74043;BMP280;62384;53.600;10.040;2023-04-03T03:26:55;66657.84;;;1.54
74043;BMP280;62384;53.600;10.040;2023-04-03T03:29:20;66625.09;;;1.50
74043;BMP280;62384;53.600;10.040;2023-04-03T03:31:46;66308.81;;;1.50
74043;BMP280;62384;53.600;10.040;2023-04-03T03:34:11;66167.38;;;1.55
74043;BMP280;62384;53.600;10.040;2023-04-03T03:36:37;66530.50;;;1.49
74043;BMP280;62384;53.600;10.040;2023-04-03T03:39:02;66048.22;;;1.45
74043;BMP280;62384;53.600;10.040;2023-04-03T03:41:28;65724.66;;;1.38
74043;BMP280;62384;53.600;10.040;2023-04-03T03:43:53;65999.41;;;1.49
74043;BMP280;62384;53.600;10.040;2023-04-03T03:46:18;66121.88;;;1.46
74043;BMP280;62384;53.600;10.040;2023-04-03T03:48:44;65786.91;;;1.45
74043;BMP280;62384;53.600;10.040;2023-04-03T03:51:10;66272.50;;;1.45
74043;BMP280;62384;53.600;10.040;2023-04-03T03:53:39;66254.47;;;1.40
74043;BMP280;62384;53.600;10.040;2023-04-03T03:56:08;66378.84;;;1.31
74043;BMP280;62384;53.600;10.040;2023-04-03T03:58:33;66162.50;;;1.39
74043;BMP280;62384;53.600;10.040;2023-04-03T04:01:03;66487.59;;;1.30
74043;BMP280;62384;53.600;10.040;2023-04-03T04:03:28;66360.28;;;1.36
74043;BMP280;62384;53.600;10.040;2023-04-03T04:05:54;66308.78;;;1.31
74043;BMP280;62384;53.600;10.040;2023-04-03T04:08:20;66497.50;;;1.40
74043;BMP280;62384;53.600;10.040;2023-04-03T04:10:45;65202.50;;;1.33
74043;BMP280;62384;53.600;10.040;2023-04-03T04:13:11;66230.31;;;1.42
74043;BMP280;62384;53.600;10.040;2023-04-03T04:15:36;66402.44;;;1.39
74043;BMP280;62384;53.600;10.040;2023-04-03T04:18:01;66415.88;;;1.42
74043;BMP280;62384;53.600;10.040;2023-04-03T04:20:27;66556.00;;;1.41
74043;BMP280;62384;53.600;10.040;2023-04-03T04:22:52;66500.50;;;1.43
74043;BMP280;62384;53.600;10.040;2023-04-03T04:25:17;66572.06;;;1.33
74043;BMP280;62384;53.600;10.040;2023-04-03T04:27:42;66298.38;;;1.39
74043;BMP280;62384;53.600;10.040;2023-04-03T04:30:08;66561.25;;;1.20
74043;BMP280;62384;53.600;10.040;2023-04-03T04:32:35;66428.09;;;1.38
74043;BMP280;62384;53.600;10.040;2023-04-03T04:35:00;66359.63;;;1.38
74043;BMP280;62384;53.600;10.040;2023-04-03T04:37:26;66441.56;;;1.31
74043;BMP280;62384;53.600;10.040;2023-04-03T04:39:51;66235.13;;;1.31
74043;BMP280;62384;53.600;10.040;2023-04-03T04:42:16;66082.56;;;1.30
74043;BMP280;62384;53.600;10.040;2023-04-03T04:44:42;66040.78;;;1.30
74043;BMP280;62384;53.600;10.040;2023-04-03T04:47:07;66137.94;;;1.30
74043;BMP280;62384;53.600;10.040;2023-04-03T04:49:32;66112.31;;;1.31
74043;BMP280;62384;53.600;10.040;2023-04-03T04:51:57;66285.25;;;1.31
74043;BMP280;62384;53.600;10.040;2023-04-03T04:54:23;66007.97;;;1.36
74043;BMP280;62384;53.600;10.040;2023-04-03T04:56:48;66204.59;;;1.34
74043;BMP280;62384;53.600;10.040;2023-04-03T04:59:13;66142.72;;;1.38
74043;BMP280;62384;53.600;10.040;2023-04-03T05:01:39;66464.66;;;1.38
74043;BMP280;62384;53.600;10.040;2023-04-03T05:04:04;66443.53;;;1.33
74043;BMP280;62384;53.600;10.040;2023-04-03T05:06:30;66329.19;;;1.31
74043;BMP280;62384;53.600;10.040;2023-04-03T05:08:57;65990.69;;;1.37
74043;BMP280;62384;53.600;10.040;2023-04-03T05:11:22;65604.28;;;1.40
74043;BMP280;62384;53.600;10.040;2023-04-03T05:13:48;66308.72;;;1.42
74043;BMP280;62384;53.600;10.040;2023-04-03T05:16:13;66378.16;;;1.43
74043;BMP280;62384;53.600;10.040;2023-04-03T05:18:40;66557.53;;;1.42
74043;BMP280;62384;53.600;10.040;2023-04-03T05:21:05;66660.31;;;1.46
74043;BMP280;62384;53.600;10.040;2023-04-03T05:23:30;66692.81;;;1.44
74043;BMP280;62384;53.600;10.040;2023-04-03T05:25:56;66737.88;;;1.53
74043;BMP280;62384;53.600;10.040;2023-04-03T05:28:21;66715.59;;;1.49
74043;BMP280;62384;53.600;10.040;2023-04-03T05:30:56;66698.56;;;1.55
74043;BMP280;62384;53.600;10.040;2023-04-03T05:33:21;66565.97;;;1.62
74043;BMP280;62384;53.600;10.040;2023-04-03T05:35:47;66481.31;;;1.60
74043;BMP280;62384;53.600;10.040;2023-04-03T05:38:12;66580.44;;;1.66
74043;BMP280;62384;53.600;10.040;2023-04-03T05:40:38;66447.56;;;1.66
74043;BMP280;62384;53.600;10.040;2023-04-03T05:43:03;66028.16;;;1.76
74043;BMP280;62384;53.600;10.040;2023-04-03T05:45:28;66666.47;;;1.81
74043;BMP280;62384;53.600;10.040;2023-04-03T05:47:54;66833.25;;;1.83
74043;BMP280;62384;53.600;10.040;2023-04-03T05:50:19;66622.59;;;1.90
74043;BMP280;62384;53.600;10.040;2023-04-03T05:52:48;67047.34;;;1.80
74043;BMP280;62384;53.600;10.040;2023-04-03T05:55:14;67300.00;;;1.95
74043;BMP280;62384;53.600;10.040;2023-04-03T05:57:39;67331.50;;;1.92
74043;BMP280;62384;53.600;10.040;2023-04-03T06:00:06;67341.00;;;2.04
74043;BMP280;62384;53.600;10.040;2023-04-03T06:02:31;67198.94;;;2.09
74043;BMP280;62384;53.600;10.040;2023-04-03T06:04:57;67362.53;;;2.15
74043;BMP280;62384;53.600;10.040;2023-04-03T06:07:24;67758.69;;;2.22
74043;BMP280;62384;53.600;10.040;2023-04-03T06:09:52;67708.44;;;2.37
74043;BMP280;62384;53.600;10.040;2023-04-03T06:12:18;67612.78;;;2.46
74043;BMP280;62384;53.600;10.040;2023-04-03T06:14:43;67978.25;;;2.52
74043;BMP280;62384;53.600;10.040;2023-04-03T06:17:09;68364.81;;;2.59
74043;BMP280;62384;53.600;10.040;2023-04-03T06:19:35;67946.28;;;2.70
74043;BMP280;62384;53.600;10.040;2023-04-03T06:22:01;68848.31;;;2.76
74043;BMP280;62384;53.600;10.040;2023-04-03T06:24:26;69014.91;;;2.87
74043;BMP280;62384;53.600;10.040;2023-04-03T06:26:52;69298.63;;;2.90
74043;BMP280;62384;53.600;10.040;2023-04-03T06:29:18;69041.47;;;3.00
74043;BMP280;62384;53.600;10.040;2023-04-03T06:31:44;69723.47;;;3.03
74043;BMP280;62384;53.600;10.040;2023-04-03T06:34:09;69684.03;;;3.25
74043;BMP280;62384;53.600;10.040;2023-04-03T06:36:36;69953.31;;;3.32
74043;BMP280;62384;53.600;10.040;2023-04-03T06:39:01;70561.47;;;3.49
74043;BMP280;62384;53.600;10.040;2023-04-03T06:41:28;70549.97;;;3.53
74043;BMP280;62384;53.600;10.040;2023-04-03T06:43:53;70700.38;;;3.66
74043;BMP280;62384;53.600;10.040;2023-04-03T06:46:21;71152.41;;;3.73
74043;BMP280;62384;53.600;10.040;2023-04-03T06:48:48;71501.25;;;3.88
74043;BMP280;62384;53.600;10.040;2023-04-03T06:51:28;71739.59;;;3.94
74043;BMP280;62384;53.600;10.040;2023-04-03T06:53:57;71956.66;;;4.08
74043;BMP280;62384;53.600;10.040;2023-04-03T06:56:24;72390.94;;;4.15
74043;BMP280;62384;53.600;10.040;2023-04-03T06:58:50;72271.03;;;4.16
74043;BMP280;62384;53.600;10.040;2023-04-03T07:01:17;72146.09;;;4.25
74043;BMP280;62384;53.600;10.040;2023-04-03T07:03:45;72229.63;;;4.36
74043;BMP280;62384;53.600;10.040;2023-04-03T07:06:12;72665.94;;;4.48
74043;BMP280;62384;53.600;10.040;2023-04-03T07:08:37;72894.75;;;4.67
74043;BMP280;62384;53.600;10.040;2023-04-03T07:11:04;73092.81;;;4.68
74043;BMP280;62384;53.600;10.040;2023-04-03T07:13:30;73122.81;;;4.78
74043;BMP280;62384;53.600;10.040;2023-04-03T07:15:55;73690.78;;;4.87
74043;BMP280;62384;53.600;10.040;2023-04-03T07:18:21;73707.88;;;5.00
74043;BMP280;62384;53.600;10.040;2023-04-03T07:20:47;74080.53;;;5.08
74043;BMP280;62384;53.600;10.040;2023-04-03T07:23:13;74427.34;;;5.21
74043;BMP280;62384;53.600;10.040;2023-04-03T07:25:49;75722.00;;;5.28
74043;BMP280;62384;53.600;10.040;2023-04-03T07:28:16;77956.94;;;5.20
74043;BMP280;62384;53.600;10.040;2023-04-03T07:30:46;79664.53;;;5.26
74043;BMP280;62384;53.600;10.040;2023-04-03T07:33:13;80896.66;;;5.41
74043;BMP280;62384;53.600;10.040;2023-04-03T07:35:39;80728.13;;;5.27
74043;BMP280;62384;53.600;10.040;2023-04-03T07:38:05;82147.84;;;5.37
74043;BMP280;62384;53.600;10.040;2023-04-03T07:40:30;81912.50;;;5.46
74043;BMP280;62384;53.600;10.040;2023-04-03T07:42:56;83882.41;;;5.64
74043;BMP280;62384;53.600;10.040;2023-04-03T07:45:22;84905.25;;;5.66
74043;BMP280;62384;53.600;10.040;2023-04-03T07:47:48;86276.94;;;5.82
74043;BMP280;62384;53.600;10.040;2023-04-03T07:50:14;87179.16;;;6.00
74043;BMP280;62384;53.600;10.040;2023-04-03T07:52:39;87266.66;;;5.94
74043;BMP280;62384;53.600;10.040;2023-04-03T07:55:05;87418.56;;;5.99
74043;BMP280;62384;53.600;10.040;2023-04-03T07:57:31;87905.16;;;6.22
74043;BMP280;62384;53.600;10.040;2023-04-03T07:59:56;87713.53;;;6.29
74043;BMP280;62384;53.600;10.040;2023-04-03T08:02:22;87369.78;;;6.22
74043;BMP280;62384;53.600;10.040;2023-04-03T08:04:47;87914.25;;;6.44
74043;BMP280;62384;53.600;10.040;2023-04-03T08:07:12;88340.91;;;6.63
74043;BMP280;62384;53.600;10.040;2023-04-03T08:09:38;88309.28;;;6.73
74043;BMP280;62384;53.600;10.040;2023-04-03T08:12:04;88658.53;;;6.92
74043;BMP280;62384;53.600;10.040;2023-04-03T08:14:31;89207.22;;;6.87
74043;BMP280;62384;53.600;10.040;2023-04-03T08:16:59;89551.94;;;7.27
74043;BMP280;62384;53.600;10.040;2023-04-03T08:19:25;89110.84;;;7.22
74043;BMP280;62384;53.600;10.040;2023-04-03T08:21:52;89143.59;;;7.26
74043;BMP280;62384;53.600;10.040;2023-04-03T08:24:18;89423.91;;;7.35
74043;BMP280;62384;53.600;10.040;2023-04-03T08:26:43;89714.00;;;7.53
74043;BMP280;62384;53.600;10.040;2023-04-03T08:29:08;89605.84;;;7.59
74043;BMP280;62384;53.600;10.040;2023-04-03T08:31:33;89694.53;;;7.64
74043;BMP280;62384;53.600;10.040;2023-04-03T08:33:59;89819.50;;;7.75
74043;BMP280;62384;53.600;10.040;2023-04-03T08:36:26;89612.53;;;7.76
74043;BMP280;62384;53.600;10.040;2023-04-03T08:38:54;90142.50;;;7.91
74043;BMP280;62384;53.600;10.040;2023-04-03T08:41:33;90198.03;;;7.97
74043;BMP280;62384;53.600;10.040;2023-04-03T08:49:29;90943.16;;;8.48
74043;BMP280;62384;53.600;10.040;2023-04-03T08:51:57;90811.72;;;8.57
74043;BMP280;62384;53.600;10.040;2023-04-03T08:54:28;89999.88;;;8.45
74043;BMP280;62384;53.600;10.040;2023-04-03T08:56:55;89682.81;;;8.47
74043;BMP280;62384;53.600;10.040;2023-04-03T08:59:29;90034.13;;;8.50
74043;BMP280;62384;53.600;10.040;2023-04-03T09:01:57;89807.19;;;8.42
74043;BMP280;62384;53.600;10.040;2023-04-03T09:04:25;89802.22;;;8.66
74043;BMP280;62384;53.600;10.040;2023-04-03T09:06:56;88677.59;;;8.52
74043;BMP280;62384;53.600;10.040;2023-04-03T09:09:35;89321.38;;;8.77
74043;BMP280;62384;53.600;10.040;2023-04-03T09:15:22;88570.63;;;8.64
74043;BMP280;62384;53.600;10.040;2023-04-03T09:18:02;90147.56;;;9.39
74043;BMP280;62384;53.600;10.040;2023-04-03T09:23:15;89403.59;;;9.43
74043;BMP280;62384;53.600;10.040;2023-04-03T09:25:43;89986.91;;;9.60
74043;BMP280;62384;53.600;10.040;2023-04-03T09:28:08;90615.03;;;9.82
74043;BMP280;62384;53.600;10.040;2023-04-03T09:30:35;90826.53;;;10.01
74043;BMP280;62384;53.600;10.040;2023-04-03T09:33:02;89885.44;;;9.76
74043;BMP280;62384;53.600;10.040;2023-04-03T09:35:28;90270.91;;;9.94
74043;BMP280;62384;53.600;10.040;2023-04-03T09:38:01;90469.81;;;10.18
74043;BMP280;62384;53.600;10.040;2023-04-03T09:40:44;89857.34;;;10.28
74043;BMP280;62384;53.600;10.040;2023-04-03T09:45:42;88734.00;;;10.23
74043;BMP280;62384;53.600;10.040;2023-04-03T09:48:17;89118.34;;;10.31
74043;BMP280;62384;53.600;10.040;2023-04-03T09:55:56;91358.28;;;11.32
74043;BMP280;62384;53.600;10.040;2023-04-03T09:58:37;92031.88;;;12.08
74043;BMP280;62384;53.600;10.040;2023-04-03T10:01:04;100841.34;;;14.48
74043;BMP280;62384;53.600;10.040;2023-04-03T10:03:34;100715.84;;;16.46
74043;BMP280;62384;53.600;10.040;2023-04-03T10:06:01;100309.28;;;16.83
74043;BMP280;62384;53.600;10.040;2023-04-03T10:08:31;100970.06;;;17.87
74043;BMP280;62384;53.600;10.040;2023-04-03T10:11:14;98872.63;;;17.54
74043;BMP280;62384;53.600;10.040;2023-04-03T10:13:53;101393.88;;;18.15
74043;BMP280;62384;53.600;10.040;2023-04-03T10:16:50;105633.00;;;20.22
74043;BMP280;62384;53.600;10.040;2023-04-03T10:24:50;91776.47;;;18.50
74043;BMP280;62384;53.600;10.040;2023-04-03T10:27:29;91564.44;;;18.13
74043;BMP280;62384;53.600;10.040;2023-04-03T10:32:50;87699.31;;;16.84
74043;BMP280;62384;53.600;10.040;2023-04-03T10:38:30;91187.75;;;17.83
74043;BMP280;62384;53.600;10.040;2023-04-03T10:46:23;91550.41;;;19.05
74043;BMP280;62384;53.600;10.040;2023-04-03T10:51:48;90543.47;;;18.58
74043;BMP280;62384;53.600;10.040;2023-04-03T10:56:47;92459.81;;;19.61
74043;BMP280;62384;53.600;10.040;2023-04-03T10:59:26;93450.91;;;19.76
74043;BMP280;62384;53.600;10.040;2023-04-03T11:01:57;94971.78;;;20.51
74043;BMP280;62384;53.600;10.040;2023-04-03T11:04:27;91796.94;;;19.55
74043;BMP280;62384;53.600;10.040;2023-04-03T11:07:00;93101.38;;;20.24
74043;BMP280;62384;53.600;10.040;2023-04-03T11:09:37;90334.91;;;19.32
74043;BMP280;62384;53.600;10.040;2023-04-03T11:14:36;88878.66;;;18.63
74043;BMP280;62384;53.600;10.040;2023-04-03T11:22:23;82581.50;;;13.48
74043;BMP280;62384;53.600;10.040;2023-04-03T11:25:17;81555.06;;;11.91
74043;BMP280;62384;53.600;10.040;2023-04-03T11:28:05;83215.13;;;12.70
74043;BMP280;62384;53.600;10.040;2023-04-03T11:30:49;84315.84;;;14.35
74043;BMP280;62384;53.600;10.040;2023-04-03T11:35:50;82611.91;;;12.86
74043;BMP280;62384;53.600;10.040;2023-04-03T11:38:30;82007.06;;;12.02
74043;BMP280;62384;53.600;10.040;2023-04-03T11:41:00;82059.13;;;11.75
74043;BMP280;62384;53.600;10.040;2023-04-03T11:43:29;82145.78;;;11.47
74043;BMP280;62384;53.600;10.040;2023-04-03T11:45:57;83996.06;;;13.24
74043;BMP280;62384;53.600;10.040;2023-04-03T11:51:39;88568.19;;;16.75
74043;BMP280;62384;53.600;10.040;2023-04-03T11:57:22;85295.81;;;15.44
74043;BMP280;62384;53.600;10.040;2023-04-03T12:05:55;86373.31;;;16.08
74043;BMP280;62384;53.600;10.040;2023-04-03T12:08:38;87558.41;;;16.79
74043;BMP280;62384;53.600;10.040;2023-04-03T12:16:30;87720.84;;;17.17
74043;BMP280;62384;53.600;10.040;2023-04-03T12:19:02;87328.78;;;16.85
74043;BMP280;62384;53.600;10.040;2023-04-03T12:29:24;84301.47;;;14.68
74043;BMP280;62384;53.600;10.040;2023-04-03T12:32:05;85756.44;;;15.36
74043;BMP280;62384;53.600;10.040;2023-04-03T12:48:12;81828.22;;;12.39
74043;BMP280;62384;53.600;10.040;2023-04-03T12:50:40;81707.84;;;12.26
74043;BMP280;62384;53.600;10.040;2023-04-03T12:53:12;81480.84;;;11.85
74043;BMP280;62384;53.600;10.040;2023-04-03T12:55:38;82817.88;;;12.73
74043;BMP280;62384;53.600;10.040;2023-04-03T12:58:16;83552.25;;;13.36
74043;BMP280;62384;53.600;10.040;2023-04-03T13:00:43;84852.31;;;14.81
74043;BMP280;62384;53.600;10.040;2023-04-03T13:03:32;85458.34;;;15.74
74043;BMP280;62384;53.600;10.040;2023-04-03T13:06:00;85941.84;;;16.00
74043;BMP280;62384;53.600;10.040;2023-04-03T13:08:27;85711.97;;;15.91
74043;BMP280;62384;53.600;10.040;2023-04-03T13:11:04;85936.25;;;16.85
74043;BMP280;62384;53.600;10.040;2023-04-03T13:13:31;84001.97;;;15.29
74043;BMP280;62384;53.600;10.040;2023-04-03T13:15:57;82485.22;;;13.75
74043;BMP280;62384;53.600;10.040;2023-04-03T13:18:34;81722.06;;;12.57
74043;BMP280;62384;53.600;10.040;2023-04-03T13:21:06;83080.47;;;13.36
74043;BMP280;62384;53.600;10.040;2023-04-03T13:23:34;83684.75;;;14.09
74043;BMP280;62384;53.600;10.040;2023-04-03T13:26:03;84286.97;;;14.74
74043;BMP280;62384;53.600;10.040;2023-04-03T13:28:29;85192.75;;;15.68
74043;BMP280;62384;53.600;10.040;2023-04-03T13:33:28;85502.75;;;16.23
74043;BMP280;62384;53.600;10.040;2023-04-03T13:36:02;84853.03;;;15.76
74043;BMP280;62384;53.600;10.040;2023-04-03T13:38:30;85462.38;;;15.98
74043;BMP280;62384;53.600;10.040;2023-04-03T13:41:00;85928.09;;;16.33
74043;BMP280;62384;53.600;10.040;2023-04-03T13:43:32;86246.44;;;16.58
74043;BMP280;62384;53.600;10.040;2023-04-03T13:46:04;84762.66;;;15.69
74043;BMP280;62384;53.600;10.040;2023-04-03T13:48:36;84437.41;;;15.44
74043;BMP280;62384;53.600;10.040;2023-04-03T13:51:05;84251.09;;;15.15
74043;BMP280;62384;53.600;10.040;2023-04-03T13:53:34;83143.16;;;14.42
74043;BMP280;62384;53.600;10.040;2023-04-03T13:56:13;82938.78;;;14.16
74043;BMP280;62384;53.600;10.040;2023-04-03T13:58:53;83013.91;;;14.16
74043;BMP280;62384;53.600;10.040;2023-04-03T14:01:21;82812.38;;;13.59
74043;BMP280;62384;53.600;10.040;2023-04-03T14:03:56;82642.00;;;13.76
74043;BMP280;62384;53.600;10.040;2023-04-03T14:06:22;83029.13;;;14.11
74043;BMP280;62384;53.600;10.040;2023-04-03T14:08:48;83122.03;;;14.38
74043;BMP280;62384;53.600;10.040;2023-04-03T14:11:18;83352.84;;;14.55
74043;BMP280;62384;53.600;10.040;2023-04-03T14:13:45;83482.84;;;14.49
74043;BMP280;62384;53.600;10.040;2023-04-03T14:16:22;83256.38;;;14.44
74043;BMP280;62384;53.600;10.040;2023-04-03T14:18:51;83214.28;;;14.34
74043;BMP280;62384;53.600;10.040;2023-04-03T14:21:18;83807.59;;;14.88
74043;BMP280;62384;53.600;10.040;2023-04-03T14:23:44;83128.28;;;14.28
74043;BMP280;62384;53.600;10.040;2023-04-03T14:26:18;82296.00;;;13.28
74043;BMP280;62384;53.600;10.040;2023-04-03T14:28:47;82785.16;;;13.79
74043;BMP280;62384;53.600;10.040;2023-04-03T14:31:14;82904.44;;;13.80
74043;BMP280;62384;53.600;10.040;2023-04-03T14:33:40;83580.56;;;14.12
74043;BMP280;62384;53.600;10.040;2023-04-03T14:36:12;82906.03;;;13.92
74043;BMP280;62384;53.600;10.040;2023-04-03T14:38:39;83419.59;;;14.27
74043;BMP280;62384;53.600;10.040;2023-04-03T14:41:04;83878.84;;;14.78
74043;BMP280;62384;53.600;10.040;2023-04-03T14:43:29;84126.59;;;15.08
74043;BMP280;62384;53.600;10.040;2023-04-03T14:45:55;84880.22;;;15.51
74043;BMP280;62384;53.600;10.040;2023-04-03T14:48:24;84692.78;;;15.16
74043;BMP280;62384;53.600;10.040;2023-04-03T14:50:51;85187.59;;;15.87
74043;BMP280;62384;53.600;10.040;2023-04-03T14:53:19;85605.59;;;16.02
74043;BMP280;62384;53.600;10.040;2023-04-03T14:55:49;85269.34;;;16.05
74043;BMP280;62384;53.600;10.040;2023-04-03T14:58:16;85830.72;;;16.27
74043;BMP280;62384;53.600;10.040;2023-04-03T15:00:42;85737.97;;;16.34
74043;BMP280;62384;53.600;10.040;2023-04-03T15:03:20;84376.97;;;15.70
74043;BMP280;62384;53.600;10.040;2023-04-03T15:05:47;82386.50;;;13.97
74043;BMP280;62384;53.600;10.040;2023-04-03T15:08:25;81556.28;;;12.75
74043;BMP280;62384;53.600;10.040;2023-04-03T15:10:55;82296.06;;;13.00
74043;BMP280;62384;53.600;10.040;2023-04-03T15:13:21;82961.88;;;13.59
74043;BMP280;62384;53.600;10.040;2023-04-03T15:15:49;83177.75;;;13.99
74043;BMP280;62384;53.600;10.040;2023-04-03T15:18:19;84443.16;;;14.89
74043;BMP280;62384;53.600;10.040;2023-04-03T15:20:45;85364.97;;;15.70
74043;BMP280;62384;53.600;10.040;2023-04-03T15:23:16;85370.56;;;16.02
74043;BMP280;62384;53.600;10.040;2023-04-03T15:25:43;86393.03;;;16.36
74043;BMP280;62384;53.600;10.040;2023-04-03T15:28:33;84423.44;;;15.22
74043;BMP280;62384;53.600;10.040;2023-04-03T15:30:59;84750.41;;;15.29
74043;BMP280;62384;53.600;10.040;2023-04-03T15:33:25;85793.94;;;15.94
74043;BMP280;62384;53.600;10.040;2023-04-03T15:35:50;84912.25;;;15.45
74043;BMP280;62384;53.600;10.040;2023-04-03T15:38:19;82761.97;;;14.27
74043;BMP280;62384;53.600;10.040;2023-04-03T15:40:49;81905.91;;;13.11
74043;BMP280;62384;53.600;10.040;2023-04-03T15:43:19;81301.50;;;12.06
74043;BMP280;62384;53.600;10.040;2023-04-03T15:45:44;81189.59;;;11.54
74043;BMP280;62384;53.600;10.040;2023-04-03T15:48:10;81922.41;;;12.27
74043;BMP280;62384;53.600;10.040;2023-04-03T15:50:36;82482.03;;;13.16